createdAt,value
2019-02-23T00:00:45.651Z,16.73
2019-02-23T00:03:35.225Z,21.30
2019-02-23T00:06:29.876Z,20.67
2019-02-23T00:09:16.263Z,16.47
2019-02-23T00:12:05.620Z,15.50
2019-02-23T00:14:54.694Z,20.10
2019-02-23T00:17:44.896Z,17.33
2019-02-23T00:20:34.203Z,18.90
2019-02-23T00:23:23.866Z,13.40
2019-02-23T00:26:14.400Z,17.90
2019-02-23T00:29:03.777Z,17.40
2019-02-23T00:31:53.298Z,16.07
2019-02-23T00:34:42.584Z,16.47
2019-02-23T00:37:31.801Z,19.77
2019-02-23T00:40:21.142Z,18.70
2019-02-23T00:43:10.364Z,25.77
2019-02-23T00:46:00.130Z,17.17
2019-02-23T00:48:49.746Z,19.07
2019-02-23T00:51:39.292Z,19.17
2019-02-23T00:54:28.848Z,16.70
2019-02-23T00:57:18.516Z,16.50
2019-02-23T01:00:09.273Z,19.85
2019-02-23T01:02:58.827Z,17.07
2019-02-23T01:05:48.507Z,13.57
2019-02-23T01:08:38.053Z,14.10
2019-02-23T01:11:27.443Z,16.70
2019-02-23T01:14:17.098Z,16.10
2019-02-23T01:17:06.677Z,19.62
2019-02-23T01:19:57.027Z,17.33
2019-02-23T01:22:46.612Z,22.10
2019-02-23T01:25:36.135Z,18.37
2019-02-23T01:28:25.843Z,16.67
2019-02-23T01:31:15.402Z,14.37
2019-02-23T01:34:04.684Z,17.50
2019-02-23T01:36:54.017Z,14.27
2019-02-23T01:39:43.619Z,16.10
2019-02-23T01:42:33.191Z,18.10
2019-02-23T01:45:23.052Z,16.60
2019-02-23T01:48:12.473Z,17.30
2019-02-23T01:51:01.929Z,19.43
2019-02-23T01:53:51.274Z,17.13
2019-02-23T01:56:40.791Z,17.20
2019-02-23T01:59:30.123Z,12.75
2019-02-23T02:02:19.704Z,14.13
2019-02-23T02:05:09.514Z,14.10
2019-02-23T02:07:58.959Z,15.60
2019-02-23T02:10:48.229Z,13.93
2019-02-23T02:13:37.552Z,13.90
2019-02-23T02:16:27.231Z,13.97
2019-02-23T02:19:16.533Z,11.60
2019-02-23T02:22:06.888Z,14.40
2019-02-23T02:24:56.405Z,11.00
2019-02-23T02:27:45.875Z,15.00
2019-02-23T02:30:35.183Z,11.22
2019-02-23T02:33:24.515Z,14.87
2019-02-23T02:36:14.139Z,13.70
2019-02-23T02:39:05.206Z,10.00
2019-02-23T02:41:54.569Z,12.40
2019-02-23T02:44:44.365Z,9.10
2019-02-23T02:47:33.597Z,9.35
2019-02-23T02:50:24.572Z,11.68
2019-02-23T02:53:13.829Z,13.00
2019-02-23T02:56:03.478Z,15.60
2019-02-23T02:58:52.765Z,13.60
2019-02-23T03:01:42.402Z,13.00
2019-02-23T03:04:32.075Z,10.93
2019-02-23T03:07:21.739Z,8.13
2019-02-23T03:10:10.927Z,10.07
2019-02-23T03:13:00.420Z,7.53
2019-02-23T03:15:49.990Z,11.70
2019-02-23T03:18:39.342Z,13.80
2019-02-23T03:21:28.702Z,8.60
2019-02-23T03:24:18.101Z,14.50
2019-02-23T03:27:09.440Z,7.83
2019-02-23T03:29:58.970Z,14.33
2019-02-23T03:32:48.673Z,13.28
2019-02-23T03:35:38.324Z,11.70
2019-02-23T03:38:27.821Z,8.47
2019-02-23T03:41:17.293Z,16.07
2019-02-23T03:44:06.831Z,8.20
2019-02-23T03:46:56.121Z,9.03
2019-02-23T03:49:45.687Z,10.20
2019-02-23T03:52:35.325Z,11.60
2019-02-23T03:55:24.538Z,12.37
2019-02-23T03:58:14.147Z,8.27
2019-02-23T04:01:03.867Z,13.08
2019-02-23T04:03:53.356Z,8.35
2019-02-23T04:06:42.591Z,10.30
2019-02-23T04:09:31.994Z,10.23
2019-02-23T04:12:21.252Z,7.12
2019-02-23T04:15:10.767Z,8.80
2019-02-23T04:18:00.301Z,6.83
2019-02-23T04:21:01.303Z,9.27
2019-02-23T04:23:41.516Z,9.40
2019-02-23T04:26:31.050Z,7.47
2019-02-23T04:29:20.549Z,8.88
2019-02-23T04:32:10.161Z,17.25
2019-02-23T04:34:59.452Z,10.10
2019-02-23T04:37:48.735Z,9.30
2019-02-23T04:40:38.377Z,11.80
2019-02-23T04:43:27.936Z,8.20
2019-02-23T04:46:17.238Z,13.60
2019-02-23T04:49:06.938Z,10.50
2019-02-23T04:51:56.450Z,10.83
2019-02-23T04:54:45.678Z,6.93
2019-02-23T04:57:35.140Z,10.73
2019-02-23T05:00:24.830Z,5.87
2019-02-23T05:03:14.511Z,9.78
2019-02-23T05:06:03.893Z,7.97
2019-02-23T05:08:53.379Z,9.70
2019-02-23T05:11:42.924Z,9.43
2019-02-23T05:14:32.476Z,9.93
2019-02-23T05:17:22.003Z,9.67
2019-02-23T05:20:11.387Z,12.30
2019-02-23T05:23:00.886Z,12.77
2019-02-23T05:25:50.249Z,12.83
2019-02-23T05:28:40.729Z,19.10
2019-02-23T05:31:30.784Z,11.33
2019-02-23T05:34:20.495Z,6.90
2019-02-23T05:37:10.140Z,13.67
2019-02-23T05:39:59.649Z,11.90
2019-02-23T05:43:00.122Z,11.57
2019-02-23T05:45:40.128Z,8.60
2019-02-23T05:48:29.328Z,12.17
2019-02-23T05:51:18.775Z,11.63
2019-02-23T05:54:08.318Z,11.90
2019-02-23T05:56:57.640Z,10.90
2019-02-23T05:59:47.313Z,10.72
2019-02-23T06:02:36.467Z,9.93
2019-02-23T06:05:25.792Z,8.83
2019-02-23T06:08:15.020Z,12.67
2019-02-23T06:11:04.542Z,11.73
2019-02-23T06:13:53.879Z,17.00
2019-02-23T06:16:43.570Z,12.45
2019-02-23T06:19:33.203Z,9.18
2019-02-23T06:22:22.864Z,10.57
2019-02-23T06:25:12.735Z,14.23
2019-02-23T06:28:02.309Z,15.07
2019-02-23T06:30:51.890Z,11.60
2019-02-23T06:33:41.294Z,8.13
2019-02-23T06:36:31.126Z,9.40
2019-02-23T06:39:20.830Z,11.68
2019-02-23T06:42:10.103Z,8.90
2019-02-23T06:44:59.698Z,15.67
2019-02-23T06:47:48.991Z,7.23
2019-02-23T06:50:38.638Z,10.60
2019-02-23T06:53:28.137Z,10.68
2019-02-23T06:56:18.017Z,15.30
2019-02-23T06:59:07.367Z,11.37
2019-02-23T07:01:56.844Z,9.95
2019-02-23T07:04:46.249Z,8.40
2019-02-23T07:07:35.531Z,10.73
2019-02-23T07:10:24.866Z,10.53
2019-02-23T07:13:14.587Z,9.43
2019-02-23T07:16:04.271Z,7.47
2019-02-23T07:18:53.959Z,13.93
2019-02-23T07:21:43.238Z,7.87
2019-02-23T07:24:32.622Z,9.37
2019-02-23T07:27:22.101Z,14.13
2019-02-23T07:30:11.911Z,10.50
2019-02-23T07:33:01.692Z,11.97
2019-02-23T07:35:51.287Z,7.80
2019-02-23T07:38:40.525Z,9.80
2019-02-23T07:41:30.136Z,7.70
2019-02-23T07:44:19.358Z,6.50
2019-02-23T07:47:08.731Z,16.43
2019-02-23T07:49:58.349Z,9.38
2019-02-23T07:52:47.718Z,7.87
2019-02-23T07:55:37.215Z,10.63
2019-02-23T07:58:26.845Z,12.23
2019-02-23T08:01:16.394Z,10.65
2019-02-23T08:04:05.976Z,20.03
2019-02-23T08:06:55.641Z,10.85
2019-02-23T08:09:47.078Z,6.60
2019-02-23T08:12:36.455Z,10.27
2019-02-23T08:15:25.862Z,7.73
2019-02-23T08:18:15.363Z,8.60
2019-02-23T08:21:05.031Z,15.80
2019-02-23T08:23:54.699Z,10.70
2019-02-23T08:26:31.243Z,6.47
2019-02-23T08:29:03.765Z,6.90
2019-02-23T08:31:36.424Z,9.57
2019-02-23T08:34:09.533Z,7.37
2019-02-23T08:36:45.024Z,6.33
2019-02-23T08:39:16.765Z,6.73
2019-02-23T08:41:50.402Z,8.17
2019-02-23T08:44:23.199Z,9.23
2019-02-23T08:46:54.487Z,7.20
2019-02-23T08:49:25.838Z,8.53
2019-02-23T08:51:57.380Z,8.23
2019-02-23T08:54:28.683Z,11.23
2019-02-23T08:56:59.948Z,9.27
2019-02-23T08:59:32.100Z,9.90
2019-02-23T09:02:03.398Z,9.30
2019-02-23T09:04:35.010Z,8.70
2019-02-23T09:07:06.697Z,7.17
2019-02-23T09:09:38.214Z,7.35
2019-02-23T09:12:09.791Z,5.92
2019-02-23T09:14:41.264Z,12.15
2019-02-23T09:17:13.297Z,10.07
2019-02-23T09:19:44.601Z,6.13
2019-02-23T09:22:15.864Z,6.23
2019-02-23T09:24:47.347Z,9.53
2019-02-23T09:27:19.173Z,5.20
2019-02-23T09:29:50.790Z,8.13
2019-02-23T09:32:22.305Z,5.70
2019-02-23T09:34:53.928Z,13.60
2019-02-23T09:37:29.247Z,6.33
2019-02-23T09:40:01.798Z,10.80
2019-02-23T09:42:34.942Z,5.47
2019-02-23T09:45:07.894Z,6.17
2019-02-23T09:47:40.886Z,8.30
2019-02-23T09:50:12.843Z,5.30
2019-02-23T09:52:44.466Z,6.85
2019-02-23T09:55:16.046Z,7.20
2019-02-23T09:57:47.493Z,7.57
2019-02-23T10:00:18.751Z,7.92
2019-02-23T10:02:51.180Z,11.33
2019-02-23T10:05:25.132Z,10.63
2019-02-23T10:07:56.609Z,11.90
2019-02-23T10:10:28.235Z,10.33
2019-02-23T10:13:00.305Z,5.60
2019-02-23T10:15:33.737Z,5.90
2019-02-23T10:18:05.036Z,7.40
2019-02-23T10:20:41.473Z,7.00
2019-02-23T10:23:21.454Z,5.23
2019-02-23T10:25:47.311Z,5.50
2019-02-23T10:28:18.566Z,6.23
2019-02-23T10:30:50.127Z,5.93
2019-02-23T10:33:21.598Z,8.50
2019-02-23T10:35:53.104Z,5.40
2019-02-23T10:38:24.672Z,5.10
2019-02-23T10:40:55.927Z,4.77
2019-02-23T10:43:27.487Z,6.87
2019-02-23T10:45:59.759Z,8.13
2019-02-23T10:48:31.365Z,5.63
2019-02-23T10:51:03.060Z,6.40
2019-02-23T10:53:34.573Z,4.75
2019-02-23T10:56:06.204Z,4.12
2019-02-23T10:58:37.889Z,6.95
2019-02-23T11:01:09.518Z,5.12
2019-02-23T11:03:41.034Z,5.00
2019-02-23T11:06:12.917Z,4.87
2019-02-23T11:08:44.421Z,5.65
2019-02-23T11:11:15.674Z,4.30
2019-02-23T11:13:47.415Z,6.30
2019-02-23T11:16:19.616Z,6.03
2019-02-23T11:18:51.093Z,5.97
2019-02-23T11:21:22.395Z,4.70
2019-02-23T11:23:54.260Z,6.43
2019-02-23T11:26:25.873Z,11.60
2019-02-23T11:28:57.579Z,4.95
2019-02-23T11:31:29.208Z,5.13
2019-02-23T11:34:00.853Z,6.13
2019-02-23T11:36:32.608Z,4.60
2019-02-23T11:39:04.388Z,6.53
2019-02-23T11:41:35.631Z,7.90
2019-02-23T11:44:07.728Z,5.23
2019-02-23T11:46:39.289Z,6.40
2019-02-23T11:49:10.940Z,4.77
2019-02-23T11:51:42.252Z,10.60
2019-02-23T11:54:13.985Z,5.70
2019-02-23T11:56:45.570Z,4.17
2019-02-23T11:59:17.250Z,5.80
2019-02-23T12:01:48.787Z,5.20
2019-02-23T12:04:20.376Z,5.10
2019-02-23T12:06:51.817Z,4.58
2019-02-23T12:09:23.538Z,5.57
2019-02-23T12:11:55.418Z,5.20
2019-02-23T12:14:26.754Z,8.40
2019-02-23T12:16:58.242Z,5.47
2019-02-23T12:19:31.094Z,5.47
2019-02-23T12:22:12.031Z,7.22
2019-02-23T12:24:41.935Z,4.65
2019-02-23T12:27:13.836Z,6.13
2019-02-23T12:29:45.069Z,6.73
2019-02-23T12:32:16.873Z,7.00
2019-02-23T12:34:48.688Z,5.53
2019-02-23T12:37:20.279Z,5.03
2019-02-23T12:39:51.526Z,5.83
2019-02-23T12:42:23.588Z,7.57
2019-02-23T12:44:55.489Z,5.37
2019-02-23T12:47:27.084Z,6.37
2019-02-23T12:49:59.184Z,3.87
2019-02-23T12:52:30.429Z,5.95
2019-02-23T12:55:01.967Z,7.73
2019-02-23T12:57:33.531Z,4.70
2019-02-23T13:00:04.952Z,5.30
2019-02-23T13:02:36.755Z,4.33
2019-02-23T13:05:08.547Z,4.10
2019-02-23T13:07:39.926Z,6.10
2019-02-23T13:10:11.651Z,4.35
2019-02-23T13:13:33.295Z,6.67
2019-02-23T13:16:34.082Z,4.63
2019-02-23T13:20:04.810Z,3.80
2019-02-23T13:23:14.708Z,3.63
2019-02-23T13:26:05.182Z,4.60
2019-02-23T13:29:15.852Z,3.63
2019-02-23T13:32:17.203Z,3.93
2019-02-23T13:35:40.700Z,3.97
2019-02-23T13:38:38.295Z,5.60
2019-02-23T13:41:35.611Z,4.33
2019-02-23T13:45:07.516Z,4.42
2019-02-23T13:48:11.177Z,5.27
2019-02-23T13:51:12.326Z,8.70
2019-02-23T13:54:44.169Z,4.00
2019-02-23T13:57:58.005Z,4.10
2019-02-23T14:01:07.575Z,3.87
2019-02-23T14:04:08.796Z,3.80
2019-02-23T14:07:38.972Z,4.20
2019-02-23T14:10:59.342Z,3.70
2019-02-23T14:14:06.858Z,4.07
2019-02-23T14:17:04.089Z,4.23
2019-02-23T14:20:29.359Z,4.87
2019-02-23T14:23:38.658Z,4.75
2019-02-23T14:27:09.756Z,3.83
2019-02-23T14:30:08.347Z,3.90
2019-02-23T14:33:31.522Z,4.47
2019-02-23T14:36:25.828Z,4.00
2019-02-23T14:39:37.692Z,4.03
2019-02-23T14:42:51.810Z,3.53
2019-02-23T14:46:07.066Z,3.83
2019-02-23T14:48:50.024Z,4.67
2019-02-23T14:52:16.567Z,3.40
2019-02-23T14:55:12.079Z,3.30
2019-02-23T14:58:15.271Z,3.97
2019-02-23T15:01:25.589Z,3.90
2019-02-23T15:04:15.368Z,4.73
2019-02-23T15:07:22.158Z,3.40
2019-02-23T15:10:57.762Z,3.90
2019-02-23T15:14:26.174Z,3.47
2019-02-23T15:17:55.040Z,3.93
2019-02-23T15:20:47.241Z,3.20
2019-02-23T15:23:34.961Z,6.33
2019-02-23T15:26:32.346Z,3.50
2019-02-23T15:29:30.263Z,5.03
2019-02-23T15:32:58.559Z,3.50
2019-02-23T15:35:55.019Z,4.23
2019-02-23T15:39:09.509Z,3.77
2019-02-23T15:42:34.072Z,3.90
2019-02-23T15:45:41.902Z,4.23
2019-02-23T15:48:47.202Z,3.23
2019-02-23T15:51:18.605Z,3.95
2019-02-23T15:53:51.538Z,4.07
2019-02-23T15:56:23.564Z,3.53
2019-02-23T15:58:57.435Z,3.67
2019-02-23T16:01:30.236Z,3.70
2019-02-23T16:04:01.947Z,5.13
2019-02-23T16:06:35.212Z,3.80
2019-02-23T16:09:08.913Z,3.98
2019-02-23T16:11:45.103Z,4.20
2019-02-23T16:14:16.781Z,4.40
2019-02-23T16:16:48.162Z,3.67
2019-02-23T16:19:21.839Z,4.72
2019-02-23T16:21:56.230Z,3.23
2019-02-23T16:24:30.245Z,4.30
2019-02-23T16:27:05.923Z,4.00
2019-02-23T16:29:38.926Z,4.33
2019-02-23T16:32:12.249Z,5.50
2019-02-23T16:34:43.973Z,5.90
2019-02-23T16:37:16.630Z,5.70
2019-02-23T16:39:47.955Z,8.60
2019-02-23T16:42:21.630Z,7.60
2019-02-23T16:44:55.481Z,7.07
2019-02-23T16:47:27.668Z,6.95
2019-02-23T16:50:00.427Z,4.13
2019-02-23T16:52:34.424Z,7.30
2019-02-23T16:55:08.165Z,9.13
2019-02-23T16:57:43.770Z,5.97
2019-02-23T17:00:16.165Z,11.48
2019-02-23T17:02:47.856Z,9.23
2019-02-23T17:05:20.819Z,15.05
2019-02-23T17:07:53.714Z,6.40
2019-02-23T17:10:25.477Z,6.10
2019-02-23T17:12:57.553Z,8.38
2019-02-23T17:15:30.494Z,9.30
2019-02-23T17:18:01.813Z,5.97
2019-02-23T17:20:35.348Z,15.03
2019-02-23T17:23:11.595Z,12.47
2019-02-23T17:25:43.236Z,18.63
2019-02-23T17:28:17.212Z,17.57
2019-02-23T17:30:48.504Z,11.80
2019-02-23T17:33:21.961Z,22.10
2019-02-23T17:35:53.315Z,96.37
2019-02-23T17:38:26.907Z,91.83
2019-02-23T17:40:58.403Z,72.27
2019-02-23T17:43:33.329Z,70.73
2019-02-23T17:46:05.243Z,94.23
2019-02-23T17:48:37.601Z,69.50
2019-02-23T17:51:11.249Z,61.02
2019-02-23T17:53:45.072Z,49.10
2019-02-23T17:56:18.939Z,37.42
2019-02-23T17:58:52.367Z,31.20
2019-02-23T18:01:23.619Z,30.15
2019-02-23T18:03:57.790Z,25.87
2019-02-23T18:06:32.939Z,13.40
2019-02-23T18:09:05.943Z,9.70
2019-02-23T18:11:39.879Z,13.37
2019-02-23T18:14:13.320Z,12.87
2019-02-23T18:16:49.145Z,15.70
2019-02-23T18:19:23.537Z,7.28
2019-02-23T18:21:55.914Z,6.50
2019-02-23T18:24:28.960Z,10.13
2019-02-23T18:27:03.242Z,7.40
2019-02-23T18:29:36.826Z,19.27
2019-02-23T18:32:08.744Z,16.15
2019-02-23T18:34:41.846Z,11.37
2019-02-23T18:37:13.384Z,7.20
2019-02-23T18:39:47.211Z,13.13
2019-02-23T18:42:21.292Z,17.90
2019-02-23T18:44:55.168Z,17.03
2019-02-23T18:47:29.146Z,15.40
2019-02-23T18:50:03.010Z,22.30
2019-02-23T18:52:36.482Z,29.47
2019-02-23T18:55:08.411Z,20.27
2019-02-23T18:57:41.692Z,16.40
2019-02-23T19:00:24.224Z,21.33
2019-02-23T19:02:51.606Z,21.85
2019-02-23T19:05:23.505Z,14.45
2019-02-23T19:07:57.444Z,11.67
2019-02-23T19:10:30.435Z,16.20
2019-02-23T19:13:02.078Z,14.70
2019-02-23T19:15:38.150Z,26.30
2019-02-23T19:18:09.988Z,43.27
2019-02-23T19:20:42.879Z,23.60
2019-02-23T19:23:14.742Z,23.40
2019-02-23T19:25:47.789Z,11.33
2019-02-23T19:28:19.581Z,13.37
2019-02-23T19:30:50.896Z,19.80
2019-02-23T19:33:24.385Z,18.57
2019-02-23T19:35:56.339Z,21.27
2019-02-23T19:38:30.319Z,27.00
2019-02-23T19:41:04.213Z,26.77
2019-02-23T19:43:38.023Z,32.10
2019-02-23T19:46:11.738Z,39.03
2019-02-23T19:48:43.027Z,39.33
2019-02-23T19:51:14.934Z,38.60
2019-02-23T19:53:47.768Z,28.10
2019-02-23T19:56:21.611Z,30.10
2019-02-23T19:58:54.370Z,35.33
2019-02-23T20:01:26.431Z,36.85
2019-02-23T20:04:00.264Z,19.02
2019-02-23T20:06:31.819Z,27.58
2019-02-23T20:09:05.382Z,21.23
2019-02-23T20:11:36.777Z,19.80
2019-02-23T20:14:08.057Z,22.58
2019-02-23T20:16:43.639Z,21.70
2019-02-23T20:19:15.708Z,31.85
2019-02-23T20:21:48.095Z,25.97
2019-02-23T20:24:20.597Z,29.10
2019-02-23T20:26:55.818Z,28.43
2019-02-23T20:29:28.233Z,30.52
2019-02-23T20:31:59.502Z,29.93
2019-02-23T20:34:31.515Z,22.50
2019-02-23T20:37:02.908Z,23.47
2019-02-23T20:39:35.207Z,23.80
2019-02-23T20:42:08.984Z,27.03
2019-02-23T20:44:42.825Z,24.80
2019-02-23T20:47:17.359Z,25.63
2019-02-23T20:49:50.262Z,26.07
2019-02-23T20:52:21.886Z,26.90
2019-02-23T20:54:56.951Z,26.48
2019-02-23T20:57:33.295Z,32.47
2019-02-23T21:00:06.971Z,24.85
2019-02-23T21:02:38.545Z,37.75
2019-02-23T21:05:11.010Z,42.45
2019-02-23T21:07:42.498Z,67.70
2019-02-23T21:10:15.485Z,72.97
2019-02-23T21:12:47.801Z,84.83
2019-02-23T21:15:21.525Z,62.80
2019-02-23T21:17:54.631Z,62.27
2019-02-23T21:20:26.489Z,54.57
2019-02-23T21:22:59.379Z,56.17
2019-02-23T21:25:31.466Z,99.37
2019-02-23T21:28:05.172Z,104.47
2019-02-23T21:30:36.434Z,151.45
2019-02-23T21:33:08.335Z,194.63
2019-02-23T21:35:42.806Z,234.83
2019-02-23T21:38:14.764Z,129.63
2019-02-23T21:40:48.241Z,159.63
2019-02-23T21:43:21.543Z,149.87
2019-02-23T21:45:54.440Z,120.17
2019-02-23T21:48:27.408Z,105.70
2019-02-23T21:50:58.783Z,138.37
2019-02-23T21:53:30.126Z,132.10
2019-02-23T21:56:04.105Z,134.73
2019-02-23T21:58:38.135Z,94.07
2019-02-23T22:01:12.038Z,95.95
2019-02-23T22:03:44.894Z,57.83
2019-02-23T22:06:16.798Z,65.57
2019-02-23T22:08:49.229Z,46.03
2019-02-23T22:11:21.529Z,58.28
2019-02-23T22:13:52.794Z,47.77
2019-02-23T22:16:27.760Z,40.00
2019-02-23T22:19:00.272Z,32.53
2019-02-23T22:21:32.459Z,26.30
2019-02-23T22:24:07.346Z,28.80
2019-02-23T22:26:41.140Z,37.97
2019-02-23T22:29:12.970Z,24.37
2019-02-23T22:31:44.233Z,22.73
2019-02-23T22:34:16.132Z,29.70
2019-02-23T22:36:48.434Z,22.27
2019-02-23T22:39:22.636Z,27.60
2019-02-23T22:41:56.101Z,29.27
2019-02-23T22:44:27.418Z,27.33
2019-02-23T22:47:01.368Z,26.73
2019-02-23T22:49:35.299Z,29.30
2019-02-23T22:52:06.583Z,27.80
2019-02-23T22:54:40.126Z,18.73
2019-02-23T22:57:14.116Z,20.23
2019-02-23T22:59:49.433Z,24.65
2019-02-23T23:02:25.258Z,22.85
2019-02-23T23:04:58.625Z,32.20
2019-02-23T23:07:31.420Z,24.35
2019-02-23T23:10:06.301Z,21.70
2019-02-23T23:12:40.832Z,25.43
2019-02-23T23:15:13.334Z,18.10
2019-02-23T23:17:44.682Z,20.63
2019-02-23T23:20:16.115Z,25.97
2019-02-23T23:22:48.304Z,30.43
2019-02-23T23:25:19.820Z,20.40
2019-02-23T23:27:51.843Z,43.45
2019-02-23T23:30:26.344Z,16.93
2019-02-23T23:32:58.595Z,16.43
2019-02-23T23:35:32.138Z,24.90
2019-02-23T23:38:06.335Z,17.63
2019-02-23T23:40:37.868Z,16.90
2019-02-23T23:43:12.227Z,15.10
2019-02-23T23:45:45.032Z,19.67
2019-02-23T23:48:19.059Z,26.60
2019-02-23T23:50:52.024Z,23.90
2019-02-23T23:53:23.820Z,17.00
2019-02-23T23:55:57.948Z,21.63
2019-02-23T23:58:29.210Z,19.93
